createdAt,value
2022-09-15T00:00:09.258Z,8.30
2022-09-15T00:00:19.306Z,8.70
2022-09-15T00:00:29.398Z,9.90
2022-09-15T00:00:39.434Z,10.30
2022-09-15T00:00:49.503Z,11.20
2022-09-15T00:00:59.536Z,9.50
2022-09-15T00:01:09.588Z,8.80
2022-09-15T00:01:19.678Z,8.80
2022-09-15T00:01:29.802Z,10.90
2022-09-15T00:01:39.796Z,11.30
2022-09-15T00:01:49.927Z,10.30
2022-09-15T00:02:00.053Z,10.00
2022-09-15T00:02:10.178Z,11.80
2022-09-15T00:02:20.196Z,13.40
2022-09-15T00:02:30.111Z,14.20
2022-09-15T00:02:40.104Z,13.40
2022-09-15T00:02:50.221Z,11.30
2022-09-15T00:03:00.359Z,11.20
2022-09-15T00:03:10.375Z,10.20
2022-09-15T00:03:20.501Z,9.90
2022-09-15T00:03:30.516Z,10.00
2022-09-15T00:03:40.556Z,12.70
2022-09-15T00:03:50.619Z,13.90
2022-09-15T00:04:00.655Z,12.30
2022-09-15T00:04:10.673Z,8.30
2022-09-15T00:04:20.708Z,9.10
2022-09-15T00:04:30.745Z,9.40
2022-09-15T00:04:40.777Z,10.70
2022-09-15T00:04:50.848Z,9.20
2022-09-15T00:05:00.917Z,8.80
2022-09-15T00:05:10.953Z,9.40
2022-09-15T00:05:20.985Z,10.80
2022-09-15T00:05:31.024Z,12.70
2022-09-15T00:05:41.063Z,12.20
2022-09-15T00:05:51.106Z,10.70
2022-09-15T00:06:01.146Z,10.10
2022-09-15T00:06:11.177Z,8.90
2022-09-15T00:06:21.206Z,8.70
2022-09-15T00:06:31.237Z,7.10
2022-09-15T00:06:41.283Z,9.80
2022-09-15T00:06:51.336Z,9.50
2022-09-15T00:07:01.377Z,10.20
2022-09-15T00:07:11.445Z,9.50
2022-09-15T00:07:21.486Z,10.30
2022-09-15T00:07:31.566Z,9.70
2022-09-15T00:07:41.606Z,9.30
2022-09-15T00:07:51.649Z,7.30
2022-09-15T00:08:01.718Z,8.70
2022-09-15T00:08:11.765Z,10.20
2022-09-15T00:08:21.825Z,11.30
2022-09-15T00:08:31.894Z,10.90
2022-09-15T00:08:41.976Z,9.70
2022-09-15T00:08:52.034Z,11.10
2022-09-15T00:09:02.084Z,9.80
2022-09-15T00:09:12.133Z,9.90
2022-09-15T00:09:22.165Z,9.10
2022-09-15T00:09:32.218Z,9.80
2022-09-15T00:09:42.276Z,9.40
2022-09-15T00:09:52.316Z,11.40
2022-09-15T00:10:02.361Z,11.40
2022-09-15T00:10:12.396Z,14.40
2022-09-15T00:10:22.436Z,14.70
2022-09-15T00:10:32.503Z,14.70
2022-09-15T00:10:42.535Z,11.70
2022-09-15T00:10:52.578Z,11.30
2022-09-15T00:11:02.616Z,10.60
2022-09-15T00:11:12.665Z,10.20
2022-09-15T00:11:22.739Z,11.10
2022-09-15T00:11:32.798Z,14.10
2022-09-15T00:11:42.885Z,15.70
2022-09-15T00:11:52.935Z,12.60
2022-09-15T00:12:02.986Z,10.80
2022-09-15T00:12:13.030Z,9.80
2022-09-15T00:12:23.086Z,11.80
2022-09-15T00:12:33.157Z,9.70
2022-09-15T00:12:43.205Z,10.30
2022-09-15T00:12:53.236Z,9.30
2022-09-15T00:13:03.283Z,9.50
2022-09-15T00:13:13.318Z,8.80
2022-09-15T00:13:23.377Z,9.50
2022-09-15T00:13:33.467Z,11.30
2022-09-15T00:13:43.525Z,12.60
2022-09-15T00:13:53.576Z,11.30
2022-09-15T00:14:03.619Z,9.90
2022-09-15T00:14:13.654Z,9.30
2022-09-15T00:14:23.725Z,9.00
2022-09-15T00:14:33.745Z,8.50
2022-09-15T00:14:43.786Z,8.60
2022-09-15T00:14:53.826Z,9.20
2022-09-15T00:15:03.875Z,9.50
2022-09-15T00:15:13.905Z,11.50
2022-09-15T00:15:23.955Z,11.80
2022-09-15T00:15:33.986Z,12.10
2022-09-15T00:15:44.044Z,10.30
2022-09-15T00:15:54.077Z,11.50
2022-09-15T00:16:04.123Z,13.40
2022-09-15T00:16:15.387Z,12.50
2022-09-15T00:16:24.348Z,11.20
2022-09-15T00:16:34.482Z,11.50
2022-09-15T00:16:44.483Z,10.20
2022-09-15T00:16:54.583Z,11.20
2022-09-15T00:17:04.718Z,10.00
2022-09-15T00:17:14.831Z,11.40
2022-09-15T00:17:24.864Z,11.80
2022-09-15T00:17:34.937Z,9.60
2022-09-15T00:17:44.976Z,11.20
2022-09-15T00:17:55.024Z,11.30
2022-09-15T00:18:05.055Z,13.00
2022-09-15T00:18:15.112Z,12.80
2022-09-15T00:18:25.176Z,11.90
2022-09-15T00:18:35.242Z,11.70
2022-09-15T00:18:45.319Z,11.10
2022-09-15T00:18:55.357Z,9.80
2022-09-15T00:19:05.436Z,9.80
2022-09-15T00:19:15.476Z,9.80
2022-09-15T00:19:25.515Z,12.20
2022-09-15T00:19:35.576Z,12.20
2022-09-15T00:19:45.636Z,11.10
2022-09-15T00:19:55.667Z,8.60
2022-09-15T00:20:05.713Z,9.90
2022-09-15T00:20:15.745Z,11.50
2022-09-15T00:20:25.776Z,11.70
2022-09-15T00:20:35.814Z,10.70
2022-09-15T00:20:45.848Z,8.70
2022-09-15T00:20:55.876Z,8.80
2022-09-15T00:21:05.915Z,10.10
2022-09-15T00:21:15.962Z,12.80
2022-09-15T00:21:25.995Z,12.20
2022-09-15T00:21:36.054Z,11.40
2022-09-15T00:21:46.158Z,10.30
2022-09-15T00:21:56.194Z,10.70
2022-09-15T00:22:06.236Z,13.30
2022-09-15T00:22:16.274Z,14.60
2022-09-15T00:22:26.317Z,15.10
2022-09-15T00:22:36.366Z,14.00
2022-09-15T00:22:46.396Z,11.80
2022-09-15T00:22:56.426Z,11.40
2022-09-15T00:23:06.464Z,11.40
2022-09-15T00:23:16.484Z,12.90
2022-09-15T00:23:26.514Z,13.50
2022-09-15T00:23:36.547Z,14.90
2022-09-15T00:23:46.574Z,14.50
2022-09-15T00:23:56.618Z,13.60
2022-09-15T00:24:06.654Z,11.20
2022-09-15T00:24:16.692Z,10.10
2022-09-15T00:24:26.726Z,9.50
2022-09-15T00:24:36.745Z,10.70
2022-09-15T00:24:46.776Z,11.30
2022-09-15T00:24:56.812Z,12.60
2022-09-15T00:25:06.834Z,12.20
2022-09-15T00:25:16.865Z,11.90
2022-09-15T00:25:26.904Z,10.80
2022-09-15T00:25:36.943Z,9.60
2022-09-15T00:25:46.965Z,9.00
2022-09-15T00:25:56.985Z,11.00
2022-09-15T00:26:07.028Z,12.90
2022-09-15T00:26:17.104Z,14.00
2022-09-15T00:26:27.145Z,12.60
2022-09-15T00:26:37.197Z,11.90
2022-09-15T00:26:47.364Z,11.30
2022-09-15T00:26:57.415Z,11.30
2022-09-15T00:27:07.445Z,11.10
2022-09-15T00:27:17.516Z,11.20
2022-09-15T00:27:27.572Z,12.10
2022-09-15T00:27:37.636Z,12.10
2022-09-15T00:27:47.673Z,11.90
2022-09-15T00:27:57.715Z,11.60
2022-09-15T00:28:07.769Z,14.00
2022-09-15T00:28:17.796Z,14.40
2022-09-15T00:28:27.832Z,12.20
2022-09-15T00:28:37.876Z,8.40
2022-09-15T00:28:47.903Z,7.50
2022-09-15T00:28:57.955Z,8.00
2022-09-15T00:29:08.025Z,8.90
2022-09-15T00:29:18.055Z,10.00
2022-09-15T00:29:28.085Z,11.90
2022-09-15T00:29:38.119Z,12.80
2022-09-15T00:29:48.145Z,12.10
2022-09-15T00:29:58.182Z,11.00
2022-09-15T00:30:08.215Z,11.70
2022-09-15T00:30:18.245Z,12.00
2022-09-15T00:30:28.349Z,11.50
2022-09-15T00:30:38.383Z,10.90
2022-09-15T00:30:48.461Z,10.80
2022-09-15T00:30:58.588Z,14.00
2022-09-15T00:31:08.751Z,13.40
2022-09-15T00:31:18.698Z,12.00
2022-09-15T00:31:28.629Z,9.80
2022-09-15T00:31:38.645Z,12.40
2022-09-15T00:31:48.688Z,11.80
2022-09-15T00:31:58.715Z,12.10
2022-09-15T00:32:08.757Z,12.50
2022-09-15T00:32:18.816Z,13.50
2022-09-15T00:32:28.846Z,14.50
2022-09-15T00:32:38.945Z,13.50
2022-09-15T00:32:48.984Z,16.10
2022-09-15T00:32:59.017Z,16.80
2022-09-15T00:33:09.054Z,16.30
2022-09-15T00:33:19.075Z,14.10
2022-09-15T00:33:29.115Z,12.60
2022-09-15T00:33:39.156Z,12.20
2022-09-15T00:33:49.194Z,10.40
2022-09-15T00:33:59.245Z,11.90
2022-09-15T00:34:09.303Z,12.70
2022-09-15T00:34:19.355Z,12.20
2022-09-15T00:34:29.402Z,11.30
2022-09-15T00:34:39.424Z,10.10
2022-09-15T00:34:49.473Z,12.00
2022-09-15T00:34:59.495Z,12.60
2022-09-15T00:35:09.542Z,14.10
2022-09-15T00:35:19.573Z,13.80
2022-09-15T00:35:29.616Z,14.90
2022-09-15T00:35:39.652Z,13.60
2022-09-15T00:35:49.705Z,12.40
2022-09-15T00:35:59.735Z,9.50
2022-09-15T00:36:09.758Z,8.50
2022-09-15T00:36:19.815Z,9.30
2022-09-15T00:36:29.864Z,9.60
2022-09-15T00:36:39.907Z,11.10
2022-09-15T00:36:49.945Z,10.40
2022-09-15T00:36:59.973Z,12.20
2022-09-15T00:37:10.005Z,10.20
2022-09-15T00:37:20.025Z,10.80
2022-09-15T00:37:30.065Z,11.00
2022-09-15T00:37:40.097Z,12.50
2022-09-15T00:37:50.133Z,11.90
2022-09-15T00:38:00.164Z,12.40
2022-09-15T00:38:10.205Z,10.50
2022-09-15T00:38:20.275Z,13.20
2022-09-15T00:38:30.325Z,13.60
2022-09-15T00:38:40.363Z,13.50
2022-09-15T00:38:50.385Z,11.30
2022-09-15T00:39:00.425Z,11.20
2022-09-15T00:39:10.462Z,12.70
2022-09-15T00:39:20.494Z,11.70
2022-09-15T00:39:30.535Z,12.70
2022-09-15T00:39:40.574Z,12.30
2022-09-15T00:39:50.666Z,13.80
2022-09-15T00:40:00.772Z,13.20
2022-09-15T00:40:10.854Z,17.30
2022-09-15T00:40:20.918Z,15.70
2022-09-15T00:40:31.021Z,15.20
2022-09-15T00:40:41.083Z,11.50
2022-09-15T00:40:51.122Z,10.40
2022-09-15T00:41:01.166Z,10.10
2022-09-15T00:41:11.204Z,9.20
2022-09-15T00:41:21.274Z,11.20
2022-09-15T00:41:31.315Z,12.60
2022-09-15T00:41:41.344Z,13.80
2022-09-15T00:41:51.385Z,14.90
2022-09-15T00:42:01.442Z,12.80
2022-09-15T00:42:11.830Z,11.50
2022-09-15T00:42:21.642Z,9.50
2022-09-15T00:42:31.674Z,9.80
2022-09-15T00:42:41.712Z,9.60
2022-09-15T00:42:51.755Z,10.30
2022-09-15T00:43:01.783Z,10.30
2022-09-15T00:43:11.848Z,10.70
2022-09-15T00:43:21.895Z,11.40
2022-09-15T00:43:31.943Z,11.90
2022-09-15T00:43:41.987Z,12.50
2022-09-15T00:43:52.204Z,11.70
2022-09-15T00:44:02.125Z,12.50
2022-09-15T00:44:12.173Z,11.50
2022-09-15T00:44:22.224Z,14.00
2022-09-15T00:44:32.277Z,12.60
2022-09-15T00:44:42.432Z,13.70
2022-09-15T00:44:52.473Z,10.20
2022-09-15T00:45:02.515Z,11.30
2022-09-15T00:45:13.653Z,10.30
2022-09-15T00:45:22.701Z,12.90
2022-09-15T00:45:32.767Z,13.00
2022-09-15T00:45:42.821Z,12.40
2022-09-15T00:45:52.940Z,10.30
2022-09-15T00:46:02.893Z,9.20
2022-09-15T00:46:12.992Z,11.50
2022-09-15T00:46:23.082Z,11.30
2022-09-15T00:46:33.125Z,12.70
2022-09-15T00:46:43.153Z,11.50
2022-09-15T00:47:09.697Z,13.30
2022-09-15T00:47:18.854Z,11.70
2022-09-15T00:47:19.583Z,11.50
2022-09-15T00:47:25.207Z,9.80
2022-09-15T00:47:35.246Z,10.20
2022-09-15T00:47:45.292Z,8.40
2022-09-15T00:47:55.333Z,7.60
2022-09-15T00:48:05.354Z,8.60
2022-09-15T00:48:15.394Z,13.70
2022-09-15T00:48:25.414Z,13.90
2022-09-15T00:48:35.452Z,12.70
2022-09-15T00:48:45.476Z,8.00
2022-09-15T00:48:55.504Z,7.90
2022-09-15T00:49:05.534Z,7.90
2022-09-15T00:49:15.565Z,8.20
2022-09-15T00:49:25.595Z,7.60
2022-09-15T00:49:35.624Z,7.50
2022-09-15T00:49:45.654Z,11.50
2022-09-15T00:49:59.006Z,13.50
2022-09-15T00:50:05.704Z,15.90
2022-09-15T00:50:15.742Z,12.60
2022-09-15T00:50:25.779Z,11.00
2022-09-15T00:50:35.812Z,10.00
2022-09-15T00:50:45.847Z,11.20
2022-09-15T00:50:55.894Z,11.80
2022-09-15T00:51:05.934Z,11.70
2022-09-15T00:51:15.973Z,12.70
2022-09-15T00:51:25.994Z,11.00
2022-09-15T00:51:36.024Z,12.90
2022-09-15T00:51:46.056Z,10.30
2022-09-15T00:51:56.084Z,10.80
2022-09-15T00:52:06.124Z,8.70
2022-09-15T00:52:16.164Z,10.00
2022-09-15T00:52:26.194Z,12.10
2022-09-15T00:52:36.324Z,11.60
2022-09-15T00:52:46.424Z,10.40
2022-09-15T00:52:56.477Z,8.60
2022-09-15T00:53:06.504Z,7.10
2022-09-15T00:53:16.544Z,7.80
2022-09-15T00:53:26.572Z,7.70
2022-09-15T00:53:36.621Z,11.50
2022-09-15T00:53:46.674Z,10.10
2022-09-15T00:53:56.712Z,10.40
2022-09-15T00:54:06.773Z,8.20
2022-09-15T00:54:16.833Z,10.30
2022-09-15T00:54:26.954Z,11.20
2022-09-15T00:54:37.012Z,11.90
2022-09-15T00:54:47.087Z,11.30
2022-09-15T00:54:57.125Z,9.80
2022-09-15T00:55:07.184Z,8.50
2022-09-15T00:55:17.215Z,7.60
2022-09-15T00:55:27.244Z,9.00
2022-09-15T00:55:37.283Z,9.40
2022-09-15T00:55:47.324Z,10.20
2022-09-15T00:55:57.388Z,10.30
2022-09-15T00:56:07.414Z,9.90
2022-09-15T00:56:17.466Z,11.20
2022-09-15T00:56:27.534Z,11.20
2022-09-15T00:56:37.573Z,12.60
2022-09-15T00:56:47.654Z,10.90
2022-09-15T00:56:57.695Z,10.10
2022-09-15T00:57:07.724Z,8.50
2022-09-15T00:57:17.744Z,12.00
2022-09-15T00:57:27.785Z,12.50
2022-09-15T00:57:37.853Z,14.60
2022-09-15T00:57:47.894Z,11.00
2022-09-15T00:57:57.934Z,12.30
2022-09-15T00:58:07.974Z,12.20
2022-09-15T00:58:18.016Z,12.10
2022-09-15T00:58:28.062Z,11.10
2022-09-15T00:58:38.194Z,10.20
2022-09-15T00:58:48.256Z,10.80
2022-09-15T00:58:58.284Z,11.00
2022-09-15T00:59:08.314Z,11.10
2022-09-15T00:59:18.346Z,10.10
2022-09-15T00:59:28.372Z,9.70
2022-09-15T00:59:38.414Z,9.00
2022-09-15T00:59:48.463Z,9.70
2022-09-15T00:59:58.501Z,10.80
2022-09-15T01:00:08.514Z,11.60
2022-09-15T01:00:18.542Z,12.00
2022-09-15T01:00:28.635Z,12.80
2022-09-15T01:00:38.674Z,14.00
2022-09-15T01:00:48.881Z,14.10
2022-09-15T01:00:59.028Z,11.70
2022-09-15T01:01:09.162Z,12.10
2022-09-15T01:01:19.135Z,10.30
2022-09-15T01:01:29.213Z,12.80
2022-09-15T01:01:39.371Z,10.60
2022-09-15T01:01:49.468Z,9.90
2022-09-15T01:01:59.523Z,9.00
2022-09-15T01:02:09.608Z,9.10
2022-09-15T01:02:19.733Z,10.80
2022-09-15T01:02:29.852Z,9.60
2022-09-15T01:02:39.953Z,8.70
2022-09-15T01:02:49.954Z,9.20
2022-09-15T01:02:59.975Z,10.20
2022-09-15T01:03:10.014Z,13.30
2022-09-15T01:03:20.054Z,13.60
2022-09-15T01:03:30.103Z,14.50
2022-09-15T01:03:40.134Z,12.80
2022-09-15T01:03:50.175Z,11.60
2022-09-15T01:04:00.213Z,9.70
2022-09-15T01:04:10.252Z,10.00
2022-09-15T01:04:20.284Z,11.20
2022-09-15T01:04:30.332Z,11.10
2022-09-15T01:04:40.374Z,9.50
2022-09-15T01:04:53.689Z,8.60
2022-09-15T01:05:01.374Z,7.40
2022-09-15T01:05:11.414Z,7.70
2022-09-15T01:05:21.446Z,7.30
2022-09-15T01:05:31.524Z,9.20
2022-09-15T01:05:41.721Z,9.50
2022-09-15T01:05:51.784Z,10.90
2022-09-15T01:06:01.814Z,11.60
2022-09-15T01:06:11.841Z,12.90
2022-09-15T01:06:21.874Z,11.50
2022-09-15T01:06:31.903Z,11.10
2022-09-15T01:06:41.936Z,9.10
2022-09-15T01:06:51.964Z,12.70
2022-09-15T01:07:02.013Z,13.00
2022-09-15T01:07:12.052Z,14.10
2022-09-15T01:07:22.094Z,12.30
2022-09-15T01:07:32.114Z,10.10
2022-09-15T01:07:42.141Z,9.00
2022-09-15T01:07:52.164Z,8.80
2022-09-15T01:08:02.186Z,10.20
2022-09-15T01:08:12.204Z,14.80
2022-09-15T01:08:22.246Z,14.60
2022-09-15T01:08:32.274Z,13.10
2022-09-15T01:08:42.302Z,9.20
2022-09-15T01:08:52.382Z,8.30
2022-09-15T01:09:02.363Z,8.80
2022-09-15T01:09:12.402Z,9.40
2022-09-15T01:09:22.426Z,10.40
2022-09-15T01:09:32.444Z,9.80
2022-09-15T01:09:42.553Z,8.60
2022-09-15T01:09:52.572Z,9.30
2022-09-15T01:10:02.602Z,11.00
2022-09-15T01:10:12.625Z,11.40
2022-09-15T01:10:22.664Z,10.80
2022-09-15T01:10:32.691Z,11.00
2022-09-15T01:10:42.722Z,11.90
2022-09-15T01:10:52.763Z,10.70
2022-09-15T01:11:02.802Z,10.60
2022-09-15T01:11:12.834Z,11.20
2022-09-15T01:11:22.863Z,11.70
2022-09-15T01:11:32.888Z,11.50
2022-09-15T01:11:42.914Z,10.50
2022-09-15T01:11:52.944Z,9.40
2022-09-15T01:12:02.964Z,9.20
2022-09-15T01:12:13.014Z,9.10
2022-09-15T01:12:23.043Z,10.80
2022-09-15T01:12:33.086Z,12.20
2022-09-15T01:12:43.113Z,14.20
2022-09-15T01:12:53.164Z,13.70
2022-09-15T01:13:03.193Z,13.20
2022-09-15T01:13:13.213Z,11.60
2022-09-15T01:13:23.234Z,10.50
2022-09-15T01:13:33.266Z,11.10
2022-09-15T01:13:43.313Z,15.20
2022-09-15T01:13:53.353Z,15.00
2022-09-15T01:14:03.393Z,12.80
2022-09-15T01:14:13.453Z,8.30
2022-09-15T01:14:23.491Z,8.90
2022-09-15T01:15:10.711Z,6.20
2022-09-15T01:15:20.752Z,7.40
2022-09-15T01:15:30.812Z,9.20
2022-09-15T01:15:40.871Z,13.90
2022-09-15T01:15:50.953Z,16.30
2022-09-15T01:16:01.020Z,14.50
2022-09-15T01:16:11.121Z,10.40
2022-09-15T01:16:21.248Z,8.40
2022-09-15T01:16:31.341Z,9.90
2022-09-15T01:16:41.454Z,9.80
2022-09-15T01:16:51.471Z,10.00
2022-09-15T01:17:01.510Z,10.30
2022-09-15T01:17:11.561Z,12.00
2022-09-15T01:17:21.661Z,12.60
2022-09-15T01:17:31.732Z,11.20
2022-09-15T01:17:41.780Z,10.60
2022-09-15T01:17:51.840Z,8.80
2022-09-15T01:18:01.913Z,9.50
2022-09-15T01:18:11.972Z,11.80
2022-09-15T01:18:22.037Z,12.20
2022-09-15T01:18:32.102Z,11.30
2022-09-15T01:18:42.181Z,10.70
2022-09-15T01:18:52.271Z,11.20
2022-09-15T01:19:02.342Z,12.30
2022-09-15T01:19:12.410Z,9.20
2022-09-15T01:19:22.480Z,8.60
2022-09-15T01:19:32.560Z,9.50
2022-09-15T01:19:42.631Z,12.30
2022-09-15T01:19:52.701Z,11.00
2022-09-15T01:20:02.770Z,10.40
2022-09-15T01:20:12.830Z,11.60
2022-09-15T01:20:23.071Z,12.20
2022-09-15T01:20:33.131Z,14.40
2022-09-15T01:20:43.197Z,11.40
2022-09-15T01:20:53.272Z,12.50
2022-09-15T01:21:03.360Z,9.40
2022-09-15T01:21:13.421Z,10.30
2022-09-15T01:21:23.500Z,10.20
2022-09-15T01:21:33.551Z,10.00
2022-09-15T01:21:43.611Z,10.10
2022-09-15T01:21:58.103Z,9.80
2022-09-15T01:22:04.649Z,10.10
2022-09-15T01:22:14.710Z,10.70
2022-09-15T01:22:24.760Z,10.00
2022-09-15T01:22:34.802Z,10.20
2022-09-15T01:22:44.851Z,10.90
2022-09-15T01:22:54.900Z,11.30
2022-09-15T01:23:04.960Z,13.00
2022-09-15T01:23:15.011Z,11.20
2022-09-15T01:23:25.061Z,10.50
2022-09-15T01:23:35.099Z,9.00
2022-09-15T01:23:45.197Z,9.70
2022-09-15T01:23:55.312Z,10.10
2022-09-15T01:24:05.369Z,9.40
2022-09-15T01:24:15.422Z,8.70
2022-09-15T01:24:25.481Z,9.00
2022-09-15T01:24:35.532Z,8.00
2022-09-15T01:24:45.600Z,9.20
2022-09-15T01:24:55.690Z,8.20
2022-09-15T01:25:05.751Z,9.80
2022-09-15T01:25:15.808Z,11.10
2022-09-15T01:25:25.891Z,13.00
2022-09-15T01:25:35.952Z,12.10
2022-09-15T01:25:46.011Z,9.80
2022-09-15T01:25:56.051Z,8.50
2022-09-15T01:26:06.111Z,8.50
2022-09-15T01:26:16.168Z,8.30
2022-09-15T01:26:26.220Z,9.00
2022-09-15T01:26:36.270Z,11.30
2022-09-15T01:26:46.330Z,11.70
2022-09-15T01:26:56.384Z,12.50
2022-09-15T01:27:24.085Z,12.30
2022-09-15T01:27:40.544Z,13.10
2022-09-15T01:27:41.720Z,12.70
2022-09-15T01:27:42.450Z,9.30
2022-09-15T01:27:49.512Z,11.30
2022-09-15T01:27:59.541Z,11.30
2022-09-15T01:28:09.582Z,12.30
2022-09-15T01:28:19.611Z,11.50
2022-09-15T01:28:29.691Z,9.80
2022-09-15T01:28:39.860Z,8.60
2022-09-15T01:28:49.891Z,9.10
2022-09-15T01:28:59.901Z,10.80
2022-09-15T01:29:09.941Z,11.40
2022-09-15T01:29:21.748Z,12.90
2022-09-15T01:29:29.983Z,13.40
2022-09-15T01:29:40.021Z,15.90
2022-09-15T01:29:50.040Z,13.00
2022-09-15T01:30:00.070Z,13.10
2022-09-15T01:30:10.081Z,10.20
2022-09-15T01:30:20.119Z,11.00
2022-09-15T01:30:30.143Z,9.80
2022-09-15T01:30:40.194Z,8.80
2022-09-15T01:30:50.180Z,9.10
2022-09-15T01:31:00.231Z,9.10
2022-09-15T01:31:10.303Z,10.20
2022-09-15T01:31:20.340Z,9.90
2022-09-15T01:31:30.399Z,10.80
2022-09-15T01:31:40.543Z,12.10
2022-09-15T01:31:50.669Z,14.10
2022-09-15T01:32:00.700Z,12.60
2022-09-15T01:32:10.722Z,10.80
2022-09-15T01:32:20.759Z,10.80
2022-09-15T01:32:30.798Z,12.80
2022-09-15T01:32:40.819Z,13.10
2022-09-15T01:32:50.849Z,12.70
2022-09-15T01:33:00.875Z,11.40
2022-09-15T01:33:10.920Z,12.00
2022-09-15T01:33:20.940Z,10.40
2022-09-15T01:33:30.981Z,11.10
2022-09-15T01:33:41.011Z,9.10
2022-09-15T01:33:51.030Z,9.40
2022-09-15T01:34:01.060Z,12.30
2022-09-15T01:34:11.110Z,13.50
2022-09-15T01:34:21.141Z,14.40
2022-09-15T01:34:31.191Z,10.90
2022-09-15T01:34:41.241Z,10.80
2022-09-15T01:34:51.300Z,9.80
2022-09-15T01:35:01.341Z,10.00
2022-09-15T01:35:11.391Z,13.40
2022-09-15T01:35:21.422Z,13.20
2022-09-15T01:35:31.460Z,11.80
2022-09-15T01:35:41.540Z,7.60
2022-09-15T01:35:51.613Z,8.10
2022-09-15T01:36:01.671Z,10.80
2022-09-15T01:36:11.731Z,11.50
2022-09-15T01:36:21.810Z,11.20
2022-09-15T01:36:31.877Z,10.90
2022-09-15T01:36:41.941Z,9.50
2022-09-15T01:36:52.043Z,9.80
2022-09-15T01:37:02.128Z,10.40
2022-09-15T01:37:12.201Z,13.10
2022-09-15T01:37:22.283Z,15.90
2022-09-15T01:37:32.361Z,15.30
2022-09-15T01:37:42.410Z,13.00
2022-09-15T01:37:52.500Z,10.50
2022-09-15T01:38:02.569Z,11.30
2022-09-15T01:38:12.740Z,10.40
2022-09-15T01:38:22.810Z,12.30
2022-09-15T01:38:32.948Z,10.60
2022-09-15T01:38:43.021Z,11.70
2022-09-15T01:38:53.161Z,11.00
2022-09-15T01:39:03.271Z,10.80
2022-09-15T01:39:13.340Z,15.30
2022-09-15T01:39:23.400Z,13.50
2022-09-15T01:39:33.470Z,11.50
2022-09-15T01:39:43.530Z,8.70
2022-09-15T01:39:53.635Z,10.30
2022-09-15T01:40:03.760Z,10.90
2022-09-15T01:40:13.945Z,13.70
2022-09-15T01:40:24.112Z,15.00
2022-09-15T01:40:34.090Z,13.10
2022-09-15T01:40:44.020Z,10.70
2022-09-15T01:40:54.104Z,9.10
2022-09-15T01:41:04.168Z,10.40
2022-09-15T01:41:14.248Z,10.80
2022-09-15T01:41:24.311Z,9.80
2022-09-15T01:41:34.402Z,10.00
2022-09-15T01:41:44.500Z,10.00
2022-09-15T01:41:54.597Z,10.30
2022-09-15T01:42:04.650Z,9.50
2022-09-15T01:42:14.732Z,10.70
2022-09-15T01:42:24.800Z,13.30
2022-09-15T01:42:34.880Z,14.00
2022-09-15T01:42:44.951Z,12.70
2022-09-15T01:42:55.031Z,9.20
2022-09-15T01:43:05.100Z,8.10
2022-09-15T01:43:15.181Z,6.70
2022-09-15T01:43:25.258Z,8.40
2022-09-15T01:43:35.310Z,8.20
2022-09-15T01:43:45.399Z,8.80
2022-09-15T01:43:55.460Z,7.90
2022-09-15T01:44:05.539Z,8.40
2022-09-15T01:44:15.610Z,10.80
2022-09-15T01:44:25.681Z,14.30
2022-09-15T01:44:35.761Z,15.40
2022-09-15T01:44:45.851Z,14.60
2022-09-15T01:44:55.980Z,10.70
2022-09-15T01:45:06.060Z,10.20
2022-09-15T01:45:16.140Z,8.70
2022-09-15T01:45:26.274Z,9.90
2022-09-15T01:45:36.380Z,10.00
2022-09-15T01:45:46.551Z,10.00
2022-09-15T01:45:56.698Z,10.80
2022-09-15T01:46:06.856Z,10.30
2022-09-15T01:46:17.028Z,10.10
2022-09-15T01:46:27.030Z,9.30
2022-09-15T01:46:37.110Z,9.30
2022-09-15T01:46:47.187Z,10.10
2022-09-15T01:46:57.289Z,9.80
2022-09-15T01:47:07.359Z,12.00
2022-09-15T01:47:17.469Z,11.70
2022-09-15T01:47:27.542Z,12.70
2022-09-15T01:47:37.629Z,10.60
2022-09-15T01:47:47.691Z,10.60
2022-09-15T01:47:57.780Z,12.00
2022-09-15T01:48:07.853Z,14.00
2022-09-15T01:48:17.931Z,14.50
2022-09-15T01:48:27.930Z,12.10
2022-09-15T01:48:37.999Z,9.70
2022-09-15T01:48:48.060Z,8.70
2022-09-15T01:48:58.130Z,8.50
2022-09-15T01:49:08.180Z,9.80
2022-09-15T01:49:18.260Z,9.60
2022-09-15T01:49:28.322Z,11.80
2022-09-15T01:49:38.390Z,12.60
2022-09-15T01:49:48.471Z,11.80
2022-09-15T01:49:58.590Z,10.10
2022-09-15T01:50:08.670Z,8.30
2022-09-15T01:50:18.740Z,9.40
2022-09-15T01:50:28.827Z,10.10
2022-09-15T01:50:38.920Z,11.60
2022-09-15T01:50:49.000Z,11.20
2022-09-15T01:50:59.070Z,9.30
2022-09-15T01:51:09.170Z,9.50
2022-09-15T01:51:19.248Z,9.60
2022-09-15T01:51:29.301Z,11.80
2022-09-15T01:51:39.382Z,11.80
2022-09-15T01:51:49.460Z,11.50
2022-09-15T01:51:59.550Z,11.80
2022-09-15T01:52:09.627Z,11.50
2022-09-15T01:52:19.722Z,9.70
2022-09-15T01:52:29.787Z,10.10
2022-09-15T01:52:39.850Z,8.90
2022-09-15T01:52:49.919Z,11.70
2022-09-15T01:52:59.992Z,12.50
2022-09-15T01:53:10.059Z,13.30
2022-09-15T01:53:20.141Z,10.20
2022-09-15T01:53:30.200Z,10.10
2022-09-15T01:53:40.269Z,10.10
2022-09-15T01:53:50.372Z,12.20
2022-09-15T01:54:00.350Z,12.70
2022-09-15T01:54:10.434Z,13.20
2022-09-15T01:54:20.500Z,12.20
2022-09-15T01:54:30.579Z,10.10
2022-09-15T01:54:40.639Z,8.30
2022-09-15T01:54:50.717Z,8.50
2022-09-15T01:55:00.769Z,8.70
2022-09-15T01:55:10.849Z,10.10
2022-09-15T01:55:20.909Z,11.20
2022-09-15T01:55:30.990Z,13.70
2022-09-15T01:55:41.063Z,12.80
2022-09-15T01:55:51.130Z,11.30
2022-09-15T01:56:01.200Z,9.60
2022-09-15T01:56:11.277Z,11.30
2022-09-15T01:56:21.350Z,11.00
2022-09-15T01:56:31.414Z,10.30
2022-09-15T01:56:41.480Z,9.40
2022-09-15T01:56:51.558Z,9.90
2022-09-15T01:57:01.611Z,12.20
2022-09-15T01:57:11.679Z,11.40
2022-09-15T01:57:21.731Z,12.00
2022-09-15T01:57:31.808Z,11.70
2022-09-15T01:57:41.868Z,11.90
2022-09-15T01:57:51.930Z,12.40
2022-09-15T01:58:02.017Z,10.60
2022-09-15T01:58:12.109Z,11.00
2022-09-15T01:58:22.250Z,9.80
2022-09-15T01:58:32.319Z,9.90
2022-09-15T01:58:42.387Z,10.20
2022-09-15T01:58:52.510Z,9.30
2022-09-15T01:59:02.611Z,10.00
2022-09-15T01:59:12.672Z,8.80
2022-09-15T01:59:22.730Z,8.60
2022-09-15T01:59:32.799Z,9.20
2022-09-15T01:59:42.861Z,8.50
2022-09-15T01:59:52.932Z,11.60
2022-09-15T02:00:03.010Z,10.40
2022-09-15T02:00:13.121Z,11.60
2022-09-15T02:00:23.168Z,8.60
2022-09-15T02:00:33.232Z,8.70
2022-09-15T02:00:43.410Z,7.30
2022-09-15T02:00:53.519Z,7.50
2022-09-15T02:01:03.604Z,10.40
2022-09-15T02:01:13.766Z,12.00
2022-09-15T02:01:23.719Z,13.60
2022-09-15T02:01:33.840Z,12.30
2022-09-15T02:01:44.044Z,12.30
2022-09-15T02:01:54.135Z,11.30
2022-09-15T02:02:04.138Z,9.20
2022-09-15T02:02:14.215Z,9.20
2022-09-15T02:02:24.347Z,9.10
2022-09-15T02:02:34.542Z,9.80
2022-09-15T02:02:44.601Z,8.90
2022-09-15T02:02:54.655Z,8.40
2022-09-15T02:03:04.711Z,8.20
2022-09-15T02:03:14.779Z,7.80
2022-09-15T02:03:24.841Z,8.40
2022-09-15T02:03:34.920Z,9.80
2022-09-15T02:03:44.988Z,10.80
2022-09-15T02:03:55.057Z,9.30
2022-09-15T02:04:05.119Z,9.50
2022-09-15T02:04:15.180Z,9.10
2022-09-15T02:04:25.299Z,11.70
2022-09-15T02:04:35.359Z,10.70
2022-09-15T02:04:45.450Z,12.80
2022-09-15T02:04:55.529Z,11.70
2022-09-15T02:05:05.599Z,10.90
2022-09-15T02:05:15.650Z,11.30
2022-09-15T02:05:25.723Z,14.40
2022-09-15T02:05:35.789Z,15.20
2022-09-15T02:05:45.859Z,13.00
2022-09-15T02:05:55.929Z,9.40
2022-09-15T02:06:06.019Z,8.80
2022-09-15T02:06:16.089Z,9.10
2022-09-15T02:06:26.160Z,9.90
2022-09-15T02:06:36.230Z,8.70
2022-09-15T02:06:46.310Z,8.90
2022-09-15T02:06:56.381Z,9.90
2022-09-15T02:07:06.460Z,11.20
2022-09-15T02:07:16.535Z,11.30
2022-09-15T02:07:26.609Z,9.90
2022-09-15T02:07:36.669Z,9.90
2022-09-15T02:07:46.739Z,10.10
2022-09-15T02:07:56.811Z,11.20
2022-09-15T02:08:06.909Z,11.60
2022-09-15T02:08:16.968Z,13.40
2022-09-15T02:08:27.039Z,17.20
2022-09-15T02:08:37.117Z,17.60
2022-09-15T02:08:47.199Z,16.30
2022-09-15T02:08:57.270Z,11.70
2022-09-15T02:09:07.342Z,11.30
2022-09-15T02:09:17.411Z,9.30
2022-09-15T02:09:27.486Z,8.70
2022-09-15T02:09:37.548Z,9.20
2022-09-15T02:09:47.630Z,8.90
2022-09-15T02:09:57.690Z,8.40
2022-09-15T02:10:07.760Z,7.70
2022-09-15T02:10:17.828Z,8.60
2022-09-15T02:10:27.879Z,9.60
2022-09-15T02:10:37.969Z,10.80
2022-09-15T02:10:48.038Z,10.90
2022-09-15T02:10:58.090Z,9.50
2022-09-15T02:11:08.170Z,9.90
2022-09-15T02:11:18.234Z,9.10
2022-09-15T02:11:28.306Z,9.70
2022-09-15T02:11:38.339Z,7.80